sensor_id;sensor_type;location;lat;lon;timestamp;P1;durP1;ratioP1;P2;durP2;ratioP2
8675;SDS011;4375;52.486;13.424;2023-12-04T00:02:11;47.80;;;18.53;;
8675;SDS011;4375;52.486;13.424;2023-12-04T00:04:36;45.67;;;20.13;;
8675;SDS011;4375;52.486;13.424;2023-12-04T00:07:02;46.60;;;18.50;;
8675;SDS011;4375;52.486;13.424;2023-12-04T00:09:28;49.67;;;17.13;;
8675;SDS011;4375;52.486;13.424;2023-12-04T00:11:53;43.73;;;16.60;;
8675;SDS011;4375;52.486;13.424;2023-12-04T00:14:19;51.67;;;19.27;;
8675;SDS011;4375;52.486;13.424;2023-12-04T00:16:44;51.23;;;19.50;;
8675;SDS011;4375;52.486;13.424;2023-12-04T00:19:10;47.47;;;19.60;;
8675;SDS011;4375;52.486;13.424;2023-12-04T00:21:36;47.57;;;20.10;;
8675;SDS011;4375;52.486;13.424;2023-12-04T00:24:01;47.00;;;18.00;;
8675;SDS011;4375;52.486;13.424;2023-12-04T00:26:28;43.47;;;17.92;;
8675;SDS011;4375;52.486;13.424;2023-12-04T00:28:53;43.93;;;17.00;;
8675;SDS011;4375;52.486;13.424;2023-12-04T00:31:19;47.43;;;18.87;;
8675;SDS011;4375;52.486;13.424;2023-12-04T00:33:45;43.77;;;17.53;;
8675;SDS011;4375;52.486;13.424;2023-12-04T00:36:11;50.10;;;18.30;;
8675;SDS011;4375;52.486;13.424;2023-12-04T00:38:36;49.57;;;18.53;;
8675;SDS011;4375;52.486;13.424;2023-12-04T00:41:02;53.37;;;20.20;;
8675;SDS011;4375;52.486;13.424;2023-12-04T00:43:28;44.20;;;18.30;;
8675;SDS011;4375;52.486;13.424;2023-12-04T00:45:53;49.33;;;18.63;;
8675;SDS011;4375;52.486;13.424;2023-12-04T00:48:19;45.30;;;17.90;;
8675;SDS011;4375;52.486;13.424;2023-12-04T00:50:45;40.50;;;16.97;;
8675;SDS011;4375;52.486;13.424;2023-12-04T00:53:10;43.97;;;17.17;;
8675;SDS011;4375;52.486;13.424;2023-12-04T00:55:36;51.43;;;18.57;;
8675;SDS011;4375;52.486;13.424;2023-12-04T00:58:02;42.97;;;18.00;;
8675;SDS011;4375;52.486;13.424;2023-12-04T01:00:27;40.90;;;16.50;;
8675;SDS011;4375;52.486;13.424;2023-12-04T01:02:53;45.20;;;18.63;;
8675;SDS011;4375;52.486;13.424;2023-12-04T01:05:19;45.40;;;17.57;;
8675;SDS011;4375;52.486;13.424;2023-12-04T01:07:44;45.50;;;17.80;;
8675;SDS011;4375;52.486;13.424;2023-12-04T01:10:10;54.53;;;19.13;;
8675;SDS011;4375;52.486;13.424;2023-12-04T01:12:36;54.40;;;18.60;;
8675;SDS011;4375;52.486;13.424;2023-12-04T01:15:01;48.43;;;19.93;;
8675;SDS011;4375;52.486;13.424;2023-12-04T01:17:28;49.88;;;18.85;;
8675;SDS011;4375;52.486;13.424;2023-12-04T01:19:53;56.00;;;20.30;;
8675;SDS011;4375;52.486;13.424;2023-12-04T01:22:19;50.80;;;18.30;;
8675;SDS011;4375;52.486;13.424;2023-12-04T01:24:45;50.93;;;19.13;;
8675;SDS011;4375;52.486;13.424;2023-12-04T01:27:10;47.07;;;18.77;;
8675;SDS011;4375;52.486;13.424;2023-12-04T01:29:36;44.33;;;17.40;;
8675;SDS011;4375;52.486;13.424;2023-12-04T01:32:02;49.13;;;18.97;;
8675;SDS011;4375;52.486;13.424;2023-12-04T01:34:28;50.75;;;19.85;;
8675;SDS011;4375;52.486;13.424;2023-12-04T01:36:53;49.73;;;18.63;;
8675;SDS011;4375;52.486;13.424;2023-12-04T01:39:19;45.67;;;17.13;;
8675;SDS011;4375;52.486;13.424;2023-12-04T01:41:45;48.00;;;18.50;;
8675;SDS011;4375;52.486;13.424;2023-12-04T01:44:10;48.20;;;18.30;;
8675;SDS011;4375;52.486;13.424;2023-12-04T01:46:36;56.00;;;20.03;;
8675;SDS011;4375;52.486;13.424;2023-12-04T01:49:02;46.72;;;18.05;;
8675;SDS011;4375;52.486;13.424;2023-12-04T01:51:28;46.60;;;20.10;;
8675;SDS011;4375;52.486;13.424;2023-12-04T01:53:55;42.33;;;17.38;;
8675;SDS011;4375;52.486;13.424;2023-12-04T01:56:23;50.05;;;16.50;;
8675;SDS011;4375;52.486;13.424;2023-12-04T01:58:49;50.27;;;18.30;;
8675;SDS011;4375;52.486;13.424;2023-12-04T02:01:15;54.27;;;19.27;;
8675;SDS011;4375;52.486;13.424;2023-12-04T02:03:42;54.22;;;19.58;;
8675;SDS011;4375;52.486;13.424;2023-12-04T02:06:08;43.30;;;15.50;;
8675;SDS011;4375;52.486;13.424;2023-12-04T02:08:34;47.20;;;17.60;;
8675;SDS011;4375;52.486;13.424;2023-12-04T02:11:01;46.75;;;17.83;;
8675;SDS011;4375;52.486;13.424;2023-12-04T02:13:26;49.80;;;19.67;;
8675;SDS011;4375;52.486;13.424;2023-12-04T02:15:53;50.88;;;18.48;;
8675;SDS011;4375;52.486;13.424;2023-12-04T02:18:20;46.95;;;18.15;;
8675;SDS011;4375;52.486;13.424;2023-12-04T02:20:47;52.65;;;18.98;;
8675;SDS011;4375;52.486;13.424;2023-12-04T02:23:13;46.97;;;18.67;;
8675;SDS011;4375;52.486;13.424;2023-12-04T02:25:38;50.63;;;18.80;;
8675;SDS011;4375;52.486;13.424;2023-12-04T02:28:08;44.07;;;17.37;;
8675;SDS011;4375;52.486;13.424;2023-12-04T02:30:37;49.75;;;18.70;;
8675;SDS011;4375;52.486;13.424;2023-12-04T02:33:05;47.13;;;18.20;;
8675;SDS011;4375;52.486;13.424;2023-12-04T02:35:33;46.88;;;18.73;;
8675;SDS011;4375;52.486;13.424;2023-12-04T02:38:00;49.22;;;17.85;;
8675;SDS011;4375;52.486;13.424;2023-12-04T02:40:27;53.95;;;19.80;;
8675;SDS011;4375;52.486;13.424;2023-12-04T02:42:53;51.10;;;19.20;;
8675;SDS011;4375;52.486;13.424;2023-12-04T02:45:19;53.17;;;19.37;;
8675;SDS011;4375;52.486;13.424;2023-12-04T02:47:44;48.13;;;19.57;;
8675;SDS011;4375;52.486;13.424;2023-12-04T02:50:10;55.50;;;19.63;;
8675;SDS011;4375;52.486;13.424;2023-12-04T02:52:36;47.23;;;19.00;;
8675;SDS011;4375;52.486;13.424;2023-12-04T02:55:01;53.30;;;19.77;;
8675;SDS011;4375;52.486;13.424;2023-12-04T02:57:27;53.57;;;20.30;;
8675;SDS011;4375;52.486;13.424;2023-12-04T02:59:53;49.60;;;18.20;;
8675;SDS011;4375;52.486;13.424;2023-12-04T03:02:19;43.67;;;17.83;;
8675;SDS011;4375;52.486;13.424;2023-12-04T03:04:45;43.10;;;16.67;;
8675;SDS011;4375;52.486;13.424;2023-12-04T03:07:10;48.67;;;18.27;;
8675;SDS011;4375;52.486;13.424;2023-12-04T03:09:36;53.70;;;19.23;;
8675;SDS011;4375;52.486;13.424;2023-12-04T03:12:02;52.07;;;21.13;;
8675;SDS011;4375;52.486;13.424;2023-12-04T03:14:27;45.27;;;18.50;;
8675;SDS011;4375;52.486;13.424;2023-12-04T03:16:53;46.67;;;16.77;;
8675;SDS011;4375;52.486;13.424;2023-12-04T03:19:19;46.33;;;18.27;;
8675;SDS011;4375;52.486;13.424;2023-12-04T03:21:44;45.40;;;18.07;;
8675;SDS011;4375;52.486;13.424;2023-12-04T03:24:10;49.03;;;19.40;;
8675;SDS011;4375;52.486;13.424;2023-12-04T03:26:36;42.80;;;18.10;;
8675;SDS011;4375;52.486;13.424;2023-12-04T03:29:01;44.43;;;17.67;;
8675;SDS011;4375;52.486;13.424;2023-12-04T03:31:27;48.47;;;19.40;;
8675;SDS011;4375;52.486;13.424;2023-12-04T03:33:53;46.03;;;19.20;;
8675;SDS011;4375;52.486;13.424;2023-12-04T03:36:19;47.67;;;17.23;;
8675;SDS011;4375;52.486;13.424;2023-12-04T03:38:44;45.70;;;18.57;;
8675;SDS011;4375;52.486;13.424;2023-12-04T03:41:13;39.17;;;16.53;;
8675;SDS011;4375;52.486;13.424;2023-12-04T03:43:40;44.35;;;17.17;;
8675;SDS011;4375;52.486;13.424;2023-12-04T03:46:06;44.20;;;16.20;;
8675;SDS011;4375;52.486;13.424;2023-12-04T03:48:32;46.13;;;18.20;;
8675;SDS011;4375;52.486;13.424;2023-12-04T03:50:57;40.20;;;17.00;;
8675;SDS011;4375;52.486;13.424;2023-12-04T03:53:24;47.00;;;18.90;;
8675;SDS011;4375;52.486;13.424;2023-12-04T03:55:50;48.67;;;18.00;;
8675;SDS011;4375;52.486;13.424;2023-12-04T03:58:16;48.10;;;19.07;;
8675;SDS011;4375;52.486;13.424;2023-12-04T04:00:42;43.03;;;18.20;;
8675;SDS011;4375;52.486;13.424;2023-12-04T04:03:08;48.45;;;19.50;;
8675;SDS011;4375;52.486;13.424;2023-12-04T04:05:34;43.67;;;15.80;;
8675;SDS011;4375;52.486;13.424;2023-12-04T04:08:00;45.40;;;17.07;;
8675;SDS011;4375;52.486;13.424;2023-12-04T04:10:27;42.67;;;15.85;;
8675;SDS011;4375;52.486;13.424;2023-12-04T04:12:52;42.07;;;16.67;;
8675;SDS011;4375;52.486;13.424;2023-12-04T04:15:18;39.27;;;14.97;;
8675;SDS011;4375;52.486;13.424;2023-12-04T04:17:43;45.27;;;16.57;;
8675;SDS011;4375;52.486;13.424;2023-12-04T04:20:09;43.47;;;17.13;;
8675;SDS011;4375;52.486;13.424;2023-12-04T04:22:37;40.78;;;16.00;;
8675;SDS011;4375;52.486;13.424;2023-12-04T04:25:06;44.25;;;18.60;;
8675;SDS011;4375;52.486;13.424;2023-12-04T04:27:32;40.47;;;16.05;;
8675;SDS011;4375;52.486;13.424;2023-12-04T04:29:58;44.07;;;17.00;;
8675;SDS011;4375;52.486;13.424;2023-12-04T04:32:23;50.20;;;19.67;;
8675;SDS011;4375;52.486;13.424;2023-12-04T04:34:49;43.33;;;17.20;;
8675;SDS011;4375;52.486;13.424;2023-12-04T04:37:15;40.57;;;16.63;;
8675;SDS011;4375;52.486;13.424;2023-12-04T04:39:40;48.90;;;17.37;;
8675;SDS011;4375;52.486;13.424;2023-12-04T04:42:06;40.70;;;16.67;;
8675;SDS011;4375;52.486;13.424;2023-12-04T04:44:32;39.70;;;15.67;;
8675;SDS011;4375;52.486;13.424;2023-12-04T04:46:57;43.80;;;16.63;;
8675;SDS011;4375;52.486;13.424;2023-12-04T04:49:23;44.20;;;16.33;;
8675;SDS011;4375;52.486;13.424;2023-12-04T04:51:49;43.53;;;16.53;;
8675;SDS011;4375;52.486;13.424;2023-12-04T04:54:15;42.90;;;16.37;;
8675;SDS011;4375;52.486;13.424;2023-12-04T04:56:40;44.57;;;17.10;;
8675;SDS011;4375;52.486;13.424;2023-12-04T04:59:06;47.97;;;17.70;;
8675;SDS011;4375;52.486;13.424;2023-12-04T05:01:32;41.63;;;16.77;;
8675;SDS011;4375;52.486;13.424;2023-12-04T05:03:57;42.30;;;17.43;;
8675;SDS011;4375;52.486;13.424;2023-12-04T05:06:23;42.80;;;17.20;;
8675;SDS011;4375;52.486;13.424;2023-12-04T05:08:49;43.23;;;16.10;;
8675;SDS011;4375;52.486;13.424;2023-12-04T05:11:18;41.15;;;15.65;;
8675;SDS011;4375;52.486;13.424;2023-12-04T05:13:46;45.57;;;17.20;;
8675;SDS011;4375;52.486;13.424;2023-12-04T05:16:12;42.85;;;17.63;;
8675;SDS011;4375;52.486;13.424;2023-12-04T05:18:38;41.97;;;18.60;;
8675;SDS011;4375;52.486;13.424;2023-12-04T05:21:08;43.85;;;16.95;;
8675;SDS011;4375;52.486;13.424;2023-12-04T05:23:34;43.25;;;16.50;;
8675;SDS011;4375;52.486;13.424;2023-12-04T05:26:00;45.47;;;16.07;;
8675;SDS011;4375;52.486;13.424;2023-12-04T06:55:37;39.80;;;16.83;;
8675;SDS011;4375;52.486;13.424;2023-12-04T06:58:45;43.20;;;15.65;;
8675;SDS011;4375;52.486;13.424;2023-12-04T07:24:29;40.47;;;15.98;;
8675;SDS011;4375;52.486;13.424;2023-12-04T07:30:27;43.50;;;15.70;;
8675;SDS011;4375;52.486;13.424;2023-12-04T07:40:41;40.65;;;14.70;;
8675;SDS011;4375;52.486;13.424;2023-12-04T07:47:21;39.72;;;14.38;;
8675;SDS011;4375;52.486;13.424;2023-12-04T08:07:45;44.40;;;15.73;;
8675;SDS011;4375;52.486;13.424;2023-12-04T08:10:10;50.07;;;17.17;;
8675;SDS011;4375;52.486;13.424;2023-12-04T08:12:36;47.23;;;17.63;;
8675;SDS011;4375;52.486;13.424;2023-12-04T08:15:02;47.30;;;16.57;;
8675;SDS011;4375;52.486;13.424;2023-12-04T08:20:21;39.38;;;16.23;;
8675;SDS011;4375;52.486;13.424;2023-12-04T08:23:04;41.05;;;16.77;;
8675;SDS011;4375;52.486;13.424;2023-12-04T08:25:33;41.75;;;15.85;;
8675;SDS011;4375;52.486;13.424;2023-12-04T08:28:08;45.80;;;16.17;;
8675;SDS011;4375;52.486;13.424;2023-12-04T08:30:39;46.65;;;17.33;;
8675;SDS011;4375;52.486;13.424;2023-12-04T08:33:12;45.78;;;16.08;;
8675;SDS011;4375;52.486;13.424;2023-12-04T08:35:56;34.13;;;12.90;;
8675;SDS011;4375;52.486;13.424;2023-12-04T08:38:24;42.85;;;17.20;;
8675;SDS011;4375;52.486;13.424;2023-12-04T08:43:44;41.10;;;16.20;;
8675;SDS011;4375;52.486;13.424;2023-12-04T09:02:51;42.03;;;15.98;;
8675;SDS011;4375;52.486;13.424;2023-12-04T09:06:05;40.80;;;15.55;;
8675;SDS011;4375;52.486;13.424;2023-12-04T09:19:21;37.58;;;13.88;;
8675;SDS011;4375;52.486;13.424;2023-12-04T09:22:37;40.08;;;16.20;;
8675;SDS011;4375;52.486;13.424;2023-12-04T09:28:11;39.55;;;16.02;;
8675;SDS011;4375;52.486;13.424;2023-12-04T09:30:37;42.23;;;16.33;;
8675;SDS011;4375;52.486;13.424;2023-12-04T09:33:04;39.67;;;15.55;;
8675;SDS011;4375;52.486;13.424;2023-12-04T09:35:31;42.15;;;15.68;;
8675;SDS011;4375;52.486;13.424;2023-12-04T09:37:56;37.30;;;15.90;;
8675;SDS011;4375;52.486;13.424;2023-12-04T09:40:22;42.50;;;15.60;;
8675;SDS011;4375;52.486;13.424;2023-12-04T09:42:48;38.58;;;15.60;;
8675;SDS011;4375;52.486;13.424;2023-12-04T09:45:14;36.93;;;15.40;;
8675;SDS011;4375;52.486;13.424;2023-12-04T09:47:40;39.70;;;15.57;;
8675;SDS011;4375;52.486;13.424;2023-12-04T09:50:07;36.17;;;14.60;;
8675;SDS011;4375;52.486;13.424;2023-12-04T09:52:34;42.17;;;14.82;;
8675;SDS011;4375;52.486;13.424;2023-12-04T09:55:00;43.67;;;16.05;;
8675;SDS011;4375;52.486;13.424;2023-12-04T09:57:26;41.90;;;15.90;;
8675;SDS011;4375;52.486;13.424;2023-12-04T09:59:52;35.17;;;14.03;;
8675;SDS011;4375;52.486;13.424;2023-12-04T10:02:18;37.93;;;13.90;;
8675;SDS011;4375;52.486;13.424;2023-12-04T10:04:45;39.38;;;14.45;;
8675;SDS011;4375;52.486;13.424;2023-12-04T10:07:11;40.67;;;15.90;;
8675;SDS011;4375;52.486;13.424;2023-12-04T10:09:37;40.65;;;14.20;;
8675;SDS011;4375;52.486;13.424;2023-12-04T10:12:03;37.97;;;13.40;;
8675;SDS011;4375;52.486;13.424;2023-12-04T10:14:30;41.33;;;13.90;;
8675;SDS011;4375;52.486;13.424;2023-12-04T10:17:01;46.70;;;16.47;;
8675;SDS011;4375;52.486;13.424;2023-12-04T10:19:42;40.75;;;15.80;;
8675;SDS011;4375;52.486;13.424;2023-12-04T10:22:08;35.40;;;13.93;;
8675;SDS011;4375;52.486;13.424;2023-12-04T10:24:39;33.10;;;12.88;;
8675;SDS011;4375;52.486;13.424;2023-12-04T10:27:05;35.17;;;13.70;;
8675;SDS011;4375;52.486;13.424;2023-12-04T10:29:47;33.05;;;13.65;;
8675;SDS011;4375;52.486;13.424;2023-12-04T10:32:20;38.28;;;15.25;;
8675;SDS011;4375;52.486;13.424;2023-12-04T10:34:46;37.22;;;14.82;;
8675;SDS011;4375;52.486;13.424;2023-12-04T10:37:12;38.70;;;15.43;;
8675;SDS011;4375;52.486;13.424;2023-12-04T10:39:48;34.50;;;14.10;;
8675;SDS011;4375;52.486;13.424;2023-12-04T10:42:28;38.63;;;15.45;;
8675;SDS011;4375;52.486;13.424;2023-12-04T10:44:55;38.25;;;15.73;;
8675;SDS011;4375;52.486;13.424;2023-12-04T10:47:22;36.00;;;15.82;;
8675;SDS011;4375;52.486;13.424;2023-12-04T10:49:49;32.95;;;12.43;;
8675;SDS011;4375;52.486;13.424;2023-12-04T10:52:16;33.35;;;12.10;;
8675;SDS011;4375;52.486;13.424;2023-12-04T10:54:44;33.80;;;13.10;;
8675;SDS011;4375;52.486;13.424;2023-12-04T10:57:11;36.10;;;13.10;;
8675;SDS011;4375;52.486;13.424;2023-12-04T10:59:41;34.92;;;13.45;;
8675;SDS011;4375;52.486;13.424;2023-12-04T11:02:08;31.45;;;11.85;;
8675;SDS011;4375;52.486;13.424;2023-12-04T11:04:41;33.40;;;12.30;;
8675;SDS011;4375;52.486;13.424;2023-12-04T11:07:07;32.00;;;12.48;;
8675;SDS011;4375;52.486;13.424;2023-12-04T11:09:35;32.08;;;11.05;;
8675;SDS011;4375;52.486;13.424;2023-12-04T11:12:02;35.30;;;13.07;;
8675;SDS011;4375;52.486;13.424;2023-12-04T11:14:34;28.73;;;11.77;;
8675;SDS011;4375;52.486;13.424;2023-12-04T11:17:14;32.40;;;11.27;;
8675;SDS011;4375;52.486;13.424;2023-12-04T11:19:50;29.88;;;11.93;;
8675;SDS011;4375;52.486;13.424;2023-12-04T11:22:19;32.95;;;12.52;;
8675;SDS011;4375;52.486;13.424;2023-12-04T11:24:47;30.70;;;11.70;;
8675;SDS011;4375;52.486;13.424;2023-12-04T11:27:18;31.38;;;11.88;;
8675;SDS011;4375;52.486;13.424;2023-12-04T11:29:45;30.20;;;11.55;;
8675;SDS011;4375;52.486;13.424;2023-12-04T11:32:13;32.85;;;11.32;;
8675;SDS011;4375;52.486;13.424;2023-12-04T11:34:47;32.10;;;12.30;;
8675;SDS011;4375;52.486;13.424;2023-12-04T11:37:14;29.73;;;12.07;;
8675;SDS011;4375;52.486;13.424;2023-12-04T11:39:40;34.73;;;11.70;;
8675;SDS011;4375;52.486;13.424;2023-12-04T11:42:06;30.88;;;12.27;;
8675;SDS011;4375;52.486;13.424;2023-12-04T11:44:32;26.87;;;10.23;;
8675;SDS011;4375;52.486;13.424;2023-12-04T11:47:15;29.90;;;10.55;;
8675;SDS011;4375;52.486;13.424;2023-12-04T11:49:44;32.05;;;12.18;;
8675;SDS011;4375;52.486;13.424;2023-12-04T11:52:10;28.40;;;11.07;;
8675;SDS011;4375;52.486;13.424;2023-12-04T11:54:55;29.47;;;10.10;;
8675;SDS011;4375;52.486;13.424;2023-12-04T11:57:25;31.25;;;10.25;;
8675;SDS011;4375;52.486;13.424;2023-12-04T12:05:20;35.42;;;12.20;;
8675;SDS011;4375;52.486;13.424;2023-12-04T12:07:46;32.08;;;10.40;;
8675;SDS011;4375;52.486;13.424;2023-12-04T12:10:12;28.73;;;10.75;;
8675;SDS011;4375;52.486;13.424;2023-12-04T12:12:42;32.42;;;10.93;;
8675;SDS011;4375;52.486;13.424;2023-12-04T12:15:09;29.25;;;11.80;;
8675;SDS011;4375;52.486;13.424;2023-12-04T12:17:35;29.13;;;10.73;;
8675;SDS011;4375;52.486;13.424;2023-12-04T12:20:04;32.47;;;13.02;;
8675;SDS011;4375;52.486;13.424;2023-12-04T12:22:32;31.45;;;11.30;;
8675;SDS011;4375;52.486;13.424;2023-12-04T12:24:59;28.13;;;10.35;;
8675;SDS011;4375;52.486;13.424;2023-12-04T12:27:25;30.00;;;11.00;;
8675;SDS011;4375;52.486;13.424;2023-12-04T12:29:51;32.00;;;10.23;;
8675;SDS011;4375;52.486;13.424;2023-12-04T12:32:16;30.67;;;10.17;;
8675;SDS011;4375;52.486;13.424;2023-12-04T12:34:42;33.67;;;11.53;;
8675;SDS011;4375;52.486;13.424;2023-12-04T12:37:08;27.90;;;10.80;;
8675;SDS011;4375;52.486;13.424;2023-12-04T12:39:34;29.73;;;11.73;;
8675;SDS011;4375;52.486;13.424;2023-12-04T12:42:00;28.45;;;11.55;;
8675;SDS011;4375;52.486;13.424;2023-12-04T12:44:27;29.35;;;10.73;;
8675;SDS011;4375;52.486;13.424;2023-12-04T12:46:53;32.50;;;12.57;;
8675;SDS011;4375;52.486;13.424;2023-12-04T12:49:19;31.92;;;11.57;;
8675;SDS011;4375;52.486;13.424;2023-12-04T12:51:48;34.42;;;12.90;;
8675;SDS011;4375;52.486;13.424;2023-12-04T12:54:13;30.20;;;11.03;;
8675;SDS011;4375;52.486;13.424;2023-12-04T12:56:39;29.95;;;12.25;;
8675;SDS011;4375;52.486;13.424;2023-12-04T12:59:05;29.17;;;11.10;;
8675;SDS011;4375;52.486;13.424;2023-12-04T13:01:32;36.10;;;11.95;;
8675;SDS011;4375;52.486;13.424;2023-12-04T13:03:57;29.00;;;10.37;;
8675;SDS011;4375;52.486;13.424;2023-12-04T13:06:23;29.43;;;11.10;;
8675;SDS011;4375;52.486;13.424;2023-12-04T13:08:49;33.87;;;12.70;;
8675;SDS011;4375;52.486;13.424;2023-12-04T13:11:15;29.60;;;12.37;;
8675;SDS011;4375;52.486;13.424;2023-12-04T13:13:40;31.57;;;12.43;;
8675;SDS011;4375;52.486;13.424;2023-12-04T13:16:06;30.33;;;11.40;;
8675;SDS011;4375;52.486;13.424;2023-12-04T13:18:32;30.60;;;10.88;;
8675;SDS011;4375;52.486;13.424;2023-12-04T13:21:00;35.67;;;13.55;;
8675;SDS011;4375;52.486;13.424;2023-12-04T13:23:27;32.75;;;12.73;;
8675;SDS011;4375;52.486;13.424;2023-12-04T13:25:53;32.30;;;11.35;;
8675;SDS011;4375;52.486;13.424;2023-12-04T13:28:21;30.85;;;11.52;;
8675;SDS011;4375;52.486;13.424;2023-12-04T13:30:47;30.33;;;10.97;;
8675;SDS011;4375;52.486;13.424;2023-12-04T13:33:13;30.27;;;11.83;;
8675;SDS011;4375;52.486;13.424;2023-12-04T13:35:39;32.30;;;10.43;;
8675;SDS011;4375;52.486;13.424;2023-12-04T13:38:05;36.47;;;12.75;;
8675;SDS011;4375;52.486;13.424;2023-12-04T13:40:37;31.13;;;11.98;;
8675;SDS011;4375;52.486;13.424;2023-12-04T13:43:14;33.25;;;12.30;;
8675;SDS011;4375;52.486;13.424;2023-12-04T13:45:58;31.27;;;11.73;;
8675;SDS011;4375;52.486;13.424;2023-12-04T13:48:24;32.50;;;11.87;;
8675;SDS011;4375;52.486;13.424;2023-12-04T13:50:50;31.33;;;11.80;;
8675;SDS011;4375;52.486;13.424;2023-12-04T13:53:16;33.67;;;12.47;;
8675;SDS011;4375;52.486;13.424;2023-12-04T13:55:45;35.35;;;13.50;;
8675;SDS011;4375;52.486;13.424;2023-12-04T13:58:19;30.75;;;11.60;;
8675;SDS011;4375;52.486;13.424;2023-12-04T14:01:05;30.45;;;10.90;;
8675;SDS011;4375;52.486;13.424;2023-12-04T14:03:51;31.48;;;12.00;;
8675;SDS011;4375;52.486;13.424;2023-12-04T14:06:18;27.20;;;11.43;;
8675;SDS011;4375;52.486;13.424;2023-12-04T14:08:44;28.27;;;11.47;;
8675;SDS011;4375;52.486;13.424;2023-12-04T14:11:10;33.65;;;12.15;;
8675;SDS011;4375;52.486;13.424;2023-12-04T14:13:37;33.80;;;12.50;;
8675;SDS011;4375;52.486;13.424;2023-12-04T14:16:04;31.67;;;11.80;;
8675;SDS011;4375;52.486;13.424;2023-12-04T14:18:30;34.08;;;12.20;;
8675;SDS011;4375;52.486;13.424;2023-12-04T14:20:56;31.27;;;12.03;;
8675;SDS011;4375;52.486;13.424;2023-12-04T14:23:22;37.30;;;12.65;;
8675;SDS011;4375;52.486;13.424;2023-12-04T14:25:48;34.22;;;11.90;;
8675;SDS011;4375;52.486;13.424;2023-12-04T14:28:14;30.30;;;11.60;;
8675;SDS011;4375;52.486;13.424;2023-12-04T14:30:40;26.57;;;10.43;;
8675;SDS011;4375;52.486;13.424;2023-12-04T14:33:06;31.90;;;12.53;;
8675;SDS011;4375;52.486;13.424;2023-12-04T14:35:32;31.67;;;12.57;;
8675;SDS011;4375;52.486;13.424;2023-12-04T14:37:57;30.57;;;12.60;;
8675;SDS011;4375;52.486;13.424;2023-12-04T14:40:23;31.23;;;11.17;;
8675;SDS011;4375;52.486;13.424;2023-12-04T14:42:49;33.83;;;12.50;;
8675;SDS011;4375;52.486;13.424;2023-12-04T14:45:15;30.67;;;10.85;;
8675;SDS011;4375;52.486;13.424;2023-12-04T14:47:42;35.22;;;12.70;;
8675;SDS011;4375;52.486;13.424;2023-12-04T14:50:08;31.97;;;12.50;;
8675;SDS011;4375;52.486;13.424;2023-12-04T14:52:35;32.65;;;11.93;;
8675;SDS011;4375;52.486;13.424;2023-12-04T14:55:05;33.25;;;12.70;;
8675;SDS011;4375;52.486;13.424;2023-12-04T14:57:34;32.28;;;12.10;;
8675;SDS011;4375;52.486;13.424;2023-12-04T15:00:08;36.78;;;12.93;;
8675;SDS011;4375;52.486;13.424;2023-12-04T15:02:36;34.15;;;12.82;;
8675;SDS011;4375;52.486;13.424;2023-12-04T15:05:21;31.85;;;11.65;;
8675;SDS011;4375;52.486;13.424;2023-12-04T15:08:07;37.72;;;13.40;;
8675;SDS011;4375;52.486;13.424;2023-12-04T15:10:48;30.92;;;11.05;;
8675;SDS011;4375;52.486;13.424;2023-12-04T15:13:32;32.05;;;11.50;;
8675;SDS011;4375;52.486;13.424;2023-12-04T15:16:15;34.60;;;12.73;;
8675;SDS011;4375;52.486;13.424;2023-12-04T15:18:43;31.73;;;12.80;;
8675;SDS011;4375;52.486;13.424;2023-12-04T15:21:21;29.73;;;12.00;;
8675;SDS011;4375;52.486;13.424;2023-12-04T15:23:48;33.78;;;12.15;;
8675;SDS011;4375;52.486;13.424;2023-12-04T15:26:13;33.97;;;13.60;;
8675;SDS011;4375;52.486;13.424;2023-12-04T15:28:40;37.58;;;13.90;;
8675;SDS011;4375;52.486;13.424;2023-12-04T15:31:06;29.33;;;11.53;;
8675;SDS011;4375;52.486;13.424;2023-12-04T15:33:32;31.83;;;11.70;;
8675;SDS011;4375;52.486;13.424;2023-12-04T15:35:58;28.70;;;11.67;;
8675;SDS011;4375;52.486;13.424;2023-12-04T15:38:24;33.10;;;11.95;;
8675;SDS011;4375;52.486;13.424;2023-12-04T15:40:50;32.43;;;12.30;;
8675;SDS011;4375;52.486;13.424;2023-12-04T15:43:17;35.40;;;14.02;;
8675;SDS011;4375;52.486;13.424;2023-12-04T15:45:42;32.60;;;12.93;;
8675;SDS011;4375;52.486;13.424;2023-12-04T15:48:08;34.57;;;12.93;;
8675;SDS011;4375;52.486;13.424;2023-12-04T15:50:46;37.67;;;12.10;;
8675;SDS011;4375;52.486;13.424;2023-12-04T15:53:20;33.83;;;12.57;;
8675;SDS011;4375;52.486;13.424;2023-12-04T15:55:46;37.23;;;13.57;;
8675;SDS011;4375;52.486;13.424;2023-12-04T15:58:12;31.47;;;11.87;;
8675;SDS011;4375;52.486;13.424;2023-12-04T16:00:37;33.17;;;12.20;;
8675;SDS011;4375;52.486;13.424;2023-12-04T16:03:03;34.20;;;13.03;;
8675;SDS011;4375;52.486;13.424;2023-12-04T16:05:29;35.00;;;13.37;;
8675;SDS011;4375;52.486;13.424;2023-12-04T16:07:55;35.23;;;12.53;;
8675;SDS011;4375;52.486;13.424;2023-12-04T16:10:22;30.80;;;12.43;;
8675;SDS011;4375;52.486;13.424;2023-12-04T16:12:47;34.83;;;12.87;;
8675;SDS011;4375;52.486;13.424;2023-12-04T16:15:13;33.83;;;12.57;;
8675;SDS011;4375;52.486;13.424;2023-12-04T16:17:39;30.42;;;12.10;;
8675;SDS011;4375;52.486;13.424;2023-12-04T16:20:05;33.20;;;11.17;;
8675;SDS011;4375;52.486;13.424;2023-12-04T16:22:38;32.13;;;11.82;;
8675;SDS011;4375;52.486;13.424;2023-12-04T16:25:06;31.40;;;11.02;;
8675;SDS011;4375;52.486;13.424;2023-12-04T16:27:32;34.03;;;12.77;;
8675;SDS011;4375;52.486;13.424;2023-12-04T16:29:58;33.50;;;13.17;;
8675;SDS011;4375;52.486;13.424;2023-12-04T16:32:24;31.27;;;12.63;;
8675;SDS011;4375;52.486;13.424;2023-12-04T16:34:49;35.10;;;12.50;;
8675;SDS011;4375;52.486;13.424;2023-12-04T16:37:15;32.63;;;12.27;;
8675;SDS011;4375;52.486;13.424;2023-12-04T16:39:41;30.30;;;12.93;;
8675;SDS011;4375;52.486;13.424;2023-12-04T16:42:06;32.70;;;12.03;;
8675;SDS011;4375;52.486;13.424;2023-12-04T16:44:34;31.07;;;11.60;;
8675;SDS011;4375;52.486;13.424;2023-12-04T16:47:00;33.15;;;11.20;;
8675;SDS011;4375;52.486;13.424;2023-12-04T16:49:26;34.70;;;13.43;;
8675;SDS011;4375;52.486;13.424;2023-12-04T16:51:52;34.65;;;13.88;;
8675;SDS011;4375;52.486;13.424;2023-12-04T16:54:18;31.43;;;12.13;;
8675;SDS011;4375;52.486;13.424;2023-12-04T16:56:47;35.05;;;13.73;;
8675;SDS011;4375;52.486;13.424;2023-12-04T16:59:13;32.70;;;13.05;;
8675;SDS011;4375;52.486;13.424;2023-12-04T17:01:39;29.27;;;11.70;;
8675;SDS011;4375;52.486;13.424;2023-12-04T17:04:05;30.67;;;12.17;;
8675;SDS011;4375;52.486;13.424;2023-12-04T17:06:30;32.67;;;13.80;;
8675;SDS011;4375;52.486;13.424;2023-12-04T17:08:56;31.48;;;12.00;;
8675;SDS011;4375;52.486;13.424;2023-12-04T17:11:22;32.63;;;12.60;;
8675;SDS011;4375;52.486;13.424;2023-12-04T17:13:48;33.30;;;11.90;;
8675;SDS011;4375;52.486;13.424;2023-12-04T17:16:13;35.80;;;13.30;;
8675;SDS011;4375;52.486;13.424;2023-12-04T17:18:39;30.20;;;12.20;;
8675;SDS011;4375;52.486;13.424;2023-12-04T17:21:05;31.10;;;11.87;;
8675;SDS011;4375;52.486;13.424;2023-12-04T17:23:31;30.73;;;12.53;;
8675;SDS011;4375;52.486;13.424;2023-12-04T17:25:56;33.23;;;13.37;;
8675;SDS011;4375;52.486;13.424;2023-12-04T17:28:22;39.10;;;13.93;;
8675;SDS011;4375;52.486;13.424;2023-12-04T17:30:48;31.30;;;12.10;;
8675;SDS011;4375;52.486;13.424;2023-12-04T17:33:16;30.83;;;11.52;;
8675;SDS011;4375;52.486;13.424;2023-12-04T17:35:44;32.50;;;13.20;;
8675;SDS011;4375;52.486;13.424;2023-12-04T17:38:10;33.08;;;13.25;;
8675;SDS011;4375;52.486;13.424;2023-12-04T17:40:35;32.60;;;13.67;;
8675;SDS011;4375;52.486;13.424;2023-12-04T17:43:01;33.87;;;13.70;;